sensor_id;sensor_type;location;lat;lon;timestamp;P1;durP1;ratioP1;P2;durP2;ratioP2
76463;SDS011;65301;46.666;20.110;2022-12-18T00:02:26;38.47;;;15.35;;
76463;SDS011;65301;46.666;20.110;2022-12-18T00:05:28;40.05;;;15.95;;
76463;SDS011;65301;46.666;20.110;2022-12-18T00:08:30;42.30;;;16.75;;
76463;SDS011;65301;46.666;20.110;2022-12-18T00:11:31;37.40;;;15.13;;
76463;SDS011;65301;46.666;20.110;2022-12-18T00:14:33;37.03;;;14.70;;
76463;SDS011;65301;46.666;20.110;2022-12-18T00:17:35;40.33;;;15.05;;
76463;SDS011;65301;46.666;20.110;2022-12-18T00:20:37;36.95;;;14.77;;
76463;SDS011;65301;46.666;20.110;2022-12-18T00:23:41;39.25;;;15.05;;
76463;SDS011;65301;46.666;20.110;2022-12-18T00:26:44;41.60;;;15.37;;
76463;SDS011;65301;46.666;20.110;2022-12-18T00:29:45;39.23;;;14.70;;
76463;SDS011;65301;46.666;20.110;2022-12-18T00:32:48;44.40;;;16.52;;
76463;SDS011;65301;46.666;20.110;2022-12-18T00:35:50;42.67;;;17.63;;
76463;SDS011;65301;46.666;20.110;2022-12-18T00:38:53;40.78;;;15.20;;
76463;SDS011;65301;46.666;20.110;2022-12-18T00:41:55;43.53;;;16.53;;
76463;SDS011;65301;46.666;20.110;2022-12-18T00:45:15;43.23;;;16.13;;
76463;SDS011;65301;46.666;20.110;2022-12-18T00:48:17;38.95;;;15.77;;
76463;SDS011;65301;46.666;20.110;2022-12-18T00:51:19;42.90;;;17.30;;
76463;SDS011;65301;46.666;20.110;2022-12-18T00:54:20;48.25;;;16.23;;
76463;SDS011;65301;46.666;20.110;2022-12-18T00:57:24;47.60;;;15.93;;
76463;SDS011;65301;46.666;20.110;2022-12-18T01:00:25;46.13;;;17.37;;
76463;SDS011;65301;46.666;20.110;2022-12-18T01:03:27;45.97;;;17.17;;
76463;SDS011;65301;46.666;20.110;2022-12-18T01:06:29;47.40;;;16.27;;
76463;SDS011;65301;46.666;20.110;2022-12-18T01:09:31;48.50;;;17.92;;
76463;SDS011;65301;46.666;20.110;2022-12-18T01:12:32;47.13;;;16.97;;
76463;SDS011;65301;46.666;20.110;2022-12-18T01:15:34;46.00;;;16.37;;
76463;SDS011;65301;46.666;20.110;2022-12-18T01:18:36;46.65;;;16.85;;
76463;SDS011;65301;46.666;20.110;2022-12-18T01:21:37;43.33;;;16.42;;
76463;SDS011;65301;46.666;20.110;2022-12-18T01:24:39;41.58;;;16.02;;
76463;SDS011;65301;46.666;20.110;2022-12-18T01:27:41;42.10;;;15.37;;
76463;SDS011;65301;46.666;20.110;2022-12-18T01:30:42;47.90;;;17.37;;
76463;SDS011;65301;46.666;20.110;2022-12-18T01:33:44;51.75;;;17.55;;
76463;SDS011;65301;46.666;20.110;2022-12-18T01:36:46;47.65;;;16.75;;
76463;SDS011;65301;46.666;20.110;2022-12-18T01:39:48;44.35;;;16.67;;
76463;SDS011;65301;46.666;20.110;2022-12-18T01:42:51;50.10;;;19.07;;
76463;SDS011;65301;46.666;20.110;2022-12-18T01:45:53;42.03;;;17.10;;
76463;SDS011;65301;46.666;20.110;2022-12-18T01:48:59;47.85;;;17.50;;
76463;SDS011;65301;46.666;20.110;2022-12-18T01:52:02;44.67;;;17.27;;
76463;SDS011;65301;46.666;20.110;2022-12-18T01:55:05;45.15;;;17.48;;
76463;SDS011;65301;46.666;20.110;2022-12-18T01:58:08;46.87;;;16.40;;
76463;SDS011;65301;46.666;20.110;2022-12-18T02:01:09;48.43;;;17.00;;
76463;SDS011;65301;46.666;20.110;2022-12-18T02:04:29;46.47;;;17.23;;
76463;SDS011;65301;46.666;20.110;2022-12-18T02:07:37;42.45;;;17.67;;
76463;SDS011;65301;46.666;20.110;2022-12-18T02:14:31;48.80;;;17.17;;
76463;SDS011;65301;46.666;20.110;2022-12-18T02:17:38;46.23;;;17.07;;
76463;SDS011;65301;46.666;20.110;2022-12-18T02:27:34;44.25;;;16.48;;
76463;SDS011;65301;46.666;20.110;2022-12-18T02:30:40;44.37;;;17.20;;
76463;SDS011;65301;46.666;20.110;2022-12-18T02:33:44;46.13;;;16.77;;
76463;SDS011;65301;46.666;20.110;2022-12-18T02:36:47;49.55;;;18.25;;
76463;SDS011;65301;46.666;20.110;2022-12-18T02:39:50;45.50;;;17.73;;
76463;SDS011;65301;46.666;20.110;2022-12-18T02:42:54;53.30;;;18.92;;
76463;SDS011;65301;46.666;20.110;2022-12-18T02:45:57;50.87;;;17.93;;
76463;SDS011;65301;46.666;20.110;2022-12-18T02:49:06;53.60;;;18.33;;
76463;SDS011;65301;46.666;20.110;2022-12-18T02:55:52;48.95;;;16.98;;
76463;SDS011;65301;46.666;20.110;2022-12-18T02:58:57;51.97;;;17.30;;
76463;SDS011;65301;46.666;20.110;2022-12-18T03:02:07;48.53;;;16.70;;
76463;SDS011;65301;46.666;20.110;2022-12-18T03:08:46;49.65;;;18.52;;
76463;SDS011;65301;46.666;20.110;2022-12-18T03:11:58;47.15;;;17.42;;
76463;SDS011;65301;46.666;20.110;2022-12-18T03:15:25;43.42;;;17.48;;
76463;SDS011;65301;46.666;20.110;2022-12-18T03:18:38;47.93;;;17.37;;
76463;SDS011;65301;46.666;20.110;2022-12-18T03:21:48;50.10;;;17.80;;
76463;SDS011;65301;46.666;20.110;2022-12-18T03:24:53;47.55;;;17.63;;
76463;SDS011;65301;46.666;20.110;2022-12-18T03:27:58;55.53;;;18.55;;
76463;SDS011;65301;46.666;20.110;2022-12-18T03:31:02;50.28;;;18.92;;
76463;SDS011;65301;46.666;20.110;2022-12-18T03:34:13;49.00;;;18.70;;
76463;SDS011;65301;46.666;20.110;2022-12-18T03:37:21;50.67;;;18.97;;
76463;SDS011;65301;46.666;20.110;2022-12-18T03:40:23;49.28;;;17.38;;
76463;SDS011;65301;46.666;20.110;2022-12-18T03:43:42;51.42;;;18.60;;
76463;SDS011;65301;46.666;20.110;2022-12-18T03:50:20;48.33;;;18.07;;
76463;SDS011;65301;46.666;20.110;2022-12-18T03:56:52;53.25;;;19.08;;
76463;SDS011;65301;46.666;20.110;2022-12-18T04:00:01;56.03;;;17.95;;
76463;SDS011;65301;46.666;20.110;2022-12-18T04:03:09;45.63;;;17.88;;
76463;SDS011;65301;46.666;20.110;2022-12-18T04:06:12;48.23;;;17.87;;
76463;SDS011;65301;46.666;20.110;2022-12-18T04:09:16;53.17;;;19.77;;
76463;SDS011;65301;46.666;20.110;2022-12-18T04:12:18;50.28;;;18.40;;
76463;SDS011;65301;46.666;20.110;2022-12-18T04:15:19;55.72;;;20.02;;
76463;SDS011;65301;46.666;20.110;2022-12-18T04:18:21;54.38;;;19.13;;
76463;SDS011;65301;46.666;20.110;2022-12-18T04:21:23;65.17;;;20.73;;
76463;SDS011;65301;46.666;20.110;2022-12-18T04:24:24;55.47;;;19.57;;
76463;SDS011;65301;46.666;20.110;2022-12-18T04:27:26;55.50;;;20.20;;
76463;SDS011;65301;46.666;20.110;2022-12-18T04:30:28;55.55;;;19.17;;
76463;SDS011;65301;46.666;20.110;2022-12-18T04:33:30;55.30;;;20.65;;
76463;SDS011;65301;46.666;20.110;2022-12-18T04:36:32;55.57;;;21.47;;
76463;SDS011;65301;46.666;20.110;2022-12-18T04:39:34;57.03;;;19.73;;
76463;SDS011;65301;46.666;20.110;2022-12-18T04:42:37;53.25;;;18.38;;
76463;SDS011;65301;46.666;20.110;2022-12-18T04:45:40;55.33;;;20.75;;
76463;SDS011;65301;46.666;20.110;2022-12-18T04:48:41;55.13;;;18.23;;
76463;SDS011;65301;46.666;20.110;2022-12-18T04:51:43;51.47;;;16.93;;
76463;SDS011;65301;46.666;20.110;2022-12-18T04:54:45;55.83;;;19.50;;
76463;SDS011;65301;46.666;20.110;2022-12-18T04:57:46;51.22;;;18.40;;
76463;SDS011;65301;46.666;20.110;2022-12-18T05:00:48;52.80;;;18.67;;
76463;SDS011;65301;46.666;20.110;2022-12-18T05:03:51;52.05;;;17.92;;
76463;SDS011;65301;46.666;20.110;2022-12-18T05:06:53;50.83;;;17.63;;
76463;SDS011;65301;46.666;20.110;2022-12-18T05:09:54;53.63;;;18.63;;
76463;SDS011;65301;46.666;20.110;2022-12-18T05:12:56;50.95;;;18.10;;
76463;SDS011;65301;46.666;20.110;2022-12-18T05:16:02;55.50;;;19.27;;
76463;SDS011;65301;46.666;20.110;2022-12-18T05:19:04;56.25;;;22.02;;
76463;SDS011;65301;46.666;20.110;2022-12-18T05:22:05;60.27;;;22.27;;
76463;SDS011;65301;46.666;20.110;2022-12-18T05:25:07;58.87;;;22.67;;
76463;SDS011;65301;46.666;20.110;2022-12-18T05:28:09;60.38;;;22.95;;
76463;SDS011;65301;46.666;20.110;2022-12-18T05:31:11;54.50;;;21.60;;
76463;SDS011;65301;46.666;20.110;2022-12-18T05:34:13;54.47;;;20.85;;
76463;SDS011;65301;46.666;20.110;2022-12-18T05:37:15;53.80;;;19.10;;
76463;SDS011;65301;46.666;20.110;2022-12-18T05:40:18;51.30;;;18.88;;
76463;SDS011;65301;46.666;20.110;2022-12-18T05:43:19;52.80;;;19.95;;
76463;SDS011;65301;46.666;20.110;2022-12-18T05:46:25;54.97;;;18.73;;
76463;SDS011;65301;46.666;20.110;2022-12-18T05:49:27;47.53;;;18.17;;
76463;SDS011;65301;46.666;20.110;2022-12-18T05:52:30;49.63;;;17.33;;
76463;SDS011;65301;46.666;20.110;2022-12-18T05:55:35;50.03;;;17.65;;
76463;SDS011;65301;46.666;20.110;2022-12-18T05:58:37;49.83;;;18.08;;
76463;SDS011;65301;46.666;20.110;2022-12-18T06:01:40;53.40;;;18.30;;
76463;SDS011;65301;46.666;20.110;2022-12-18T06:04:42;43.70;;;17.20;;
76463;SDS011;65301;46.666;20.110;2022-12-18T06:07:44;53.22;;;18.45;;
76463;SDS011;65301;46.666;20.110;2022-12-18T06:10:49;49.38;;;19.15;;
76463;SDS011;65301;46.666;20.110;2022-12-18T06:13:54;51.53;;;18.17;;
76463;SDS011;65301;46.666;20.110;2022-12-18T06:16:59;58.05;;;21.95;;
76463;SDS011;65301;46.666;20.110;2022-12-18T06:20:01;57.03;;;22.10;;
76463;SDS011;65301;46.666;20.110;2022-12-18T06:23:04;53.55;;;19.73;;
76463;SDS011;65301;46.666;20.110;2022-12-18T06:26:06;54.38;;;20.67;;
76463;SDS011;65301;46.666;20.110;2022-12-18T06:29:09;54.63;;;19.40;;
76463;SDS011;65301;46.666;20.110;2022-12-18T06:32:11;56.63;;;21.73;;
76463;SDS011;65301;46.666;20.110;2022-12-18T06:35:13;57.47;;;20.90;;
76463;SDS011;65301;46.666;20.110;2022-12-18T06:38:16;57.75;;;20.63;;
76463;SDS011;65301;46.666;20.110;2022-12-18T06:41:18;66.80;;;25.00;;
76463;SDS011;65301;46.666;20.110;2022-12-18T06:44:22;74.05;;;29.65;;
76463;SDS011;65301;46.666;20.110;2022-12-18T06:47:23;60.60;;;23.33;;
76463;SDS011;65301;46.666;20.110;2022-12-18T06:50:25;55.88;;;21.55;;
76463;SDS011;65301;46.666;20.110;2022-12-18T06:53:27;71.57;;;27.67;;
76463;SDS011;65301;46.666;20.110;2022-12-18T06:56:29;65.68;;;23.55;;
76463;SDS011;65301;46.666;20.110;2022-12-18T06:59:31;84.10;;;33.30;;
76463;SDS011;65301;46.666;20.110;2022-12-18T07:02:33;141.77;;;53.57;;
76463;SDS011;65301;46.666;20.110;2022-12-18T07:05:39;104.40;;;42.35;;
76463;SDS011;65301;46.666;20.110;2022-12-18T07:08:42;67.70;;;29.02;;
76463;SDS011;65301;46.666;20.110;2022-12-18T07:11:44;58.88;;;24.60;;
76463;SDS011;65301;46.666;20.110;2022-12-18T07:14:45;60.00;;;21.73;;
76463;SDS011;65301;46.666;20.110;2022-12-18T07:17:47;63.88;;;27.73;;
76463;SDS011;65301;46.666;20.110;2022-12-18T07:20:48;64.43;;;22.58;;
76463;SDS011;65301;46.666;20.110;2022-12-18T07:23:50;71.33;;;24.00;;
76463;SDS011;65301;46.666;20.110;2022-12-18T07:26:52;64.20;;;25.33;;
76463;SDS011;65301;46.666;20.110;2022-12-18T07:29:54;65.80;;;25.00;;
76463;SDS011;65301;46.666;20.110;2022-12-18T07:32:56;55.42;;;22.13;;
76463;SDS011;65301;46.666;20.110;2022-12-18T07:36:01;57.88;;;22.65;;
76463;SDS011;65301;46.666;20.110;2022-12-18T07:39:04;88.93;;;32.53;;
76463;SDS011;65301;46.666;20.110;2022-12-18T07:42:06;76.00;;;30.05;;
76463;SDS011;65301;46.666;20.110;2022-12-18T07:45:27;66.47;;;26.85;;
76463;SDS011;65301;46.666;20.110;2022-12-18T07:48:29;64.40;;;27.15;;
76463;SDS011;65301;46.666;20.110;2022-12-18T07:51:32;65.18;;;25.73;;
76463;SDS011;65301;46.666;20.110;2022-12-18T07:54:33;58.67;;;23.17;;
76463;SDS011;65301;46.666;20.110;2022-12-18T07:57:35;48.92;;;20.20;;
76463;SDS011;65301;46.666;20.110;2022-12-18T08:01:04;50.28;;;20.50;;
76463;SDS011;65301;46.666;20.110;2022-12-18T08:04:06;47.30;;;19.70;;
76463;SDS011;65301;46.666;20.110;2022-12-18T08:07:08;47.10;;;19.40;;
76463;SDS011;65301;46.666;20.110;2022-12-18T08:10:09;52.63;;;20.57;;
76463;SDS011;65301;46.666;20.110;2022-12-18T08:13:11;53.50;;;20.45;;
76463;SDS011;65301;46.666;20.110;2022-12-18T08:16:13;52.58;;;19.60;;
76463;SDS011;65301;46.666;20.110;2022-12-18T08:19:14;49.05;;;19.88;;
76463;SDS011;65301;46.666;20.110;2022-12-18T08:22:16;44.97;;;19.08;;
76463;SDS011;65301;46.666;20.110;2022-12-18T08:25:18;43.70;;;19.37;;
76463;SDS011;65301;46.666;20.110;2022-12-18T08:28:19;44.75;;;19.13;;
76463;SDS011;65301;46.666;20.110;2022-12-18T08:31:21;49.78;;;21.35;;
76463;SDS011;65301;46.666;20.110;2022-12-18T08:34:24;54.90;;;20.17;;
76463;SDS011;65301;46.666;20.110;2022-12-18T08:37:26;48.70;;;20.08;;
76463;SDS011;65301;46.666;20.110;2022-12-18T08:40:28;51.27;;;20.57;;
76463;SDS011;65301;46.666;20.110;2022-12-18T08:43:29;44.38;;;21.00;;
76463;SDS011;65301;46.666;20.110;2022-12-18T08:46:49;50.85;;;21.13;;
76463;SDS011;65301;46.666;20.110;2022-12-18T08:49:51;48.03;;;19.50;;
76463;SDS011;65301;46.666;20.110;2022-12-18T08:52:53;44.15;;;19.15;;
76463;SDS011;65301;46.666;20.110;2022-12-18T08:55:55;47.43;;;19.33;;
76463;SDS011;65301;46.666;20.110;2022-12-18T08:58:58;46.58;;;19.30;;
76463;SDS011;65301;46.666;20.110;2022-12-18T09:02:00;46.42;;;20.00;;
76463;SDS011;65301;46.666;20.110;2022-12-18T09:05:02;51.40;;;20.63;;
76463;SDS011;65301;46.666;20.110;2022-12-18T09:08:04;51.88;;;21.05;;
76463;SDS011;65301;46.666;20.110;2022-12-18T09:11:09;48.93;;;20.63;;
76463;SDS011;65301;46.666;20.110;2022-12-18T09:14:14;46.17;;;19.02;;
76463;SDS011;65301;46.666;20.110;2022-12-18T09:17:16;45.65;;;19.80;;
76463;SDS011;65301;46.666;20.110;2022-12-18T09:20:18;44.50;;;19.92;;
76463;SDS011;65301;46.666;20.110;2022-12-18T09:23:20;49.88;;;20.42;;
76463;SDS011;65301;46.666;20.110;2022-12-18T09:26:23;48.33;;;20.37;;
76463;SDS011;65301;46.666;20.110;2022-12-18T09:29:26;47.92;;;21.17;;
76463;SDS011;65301;46.666;20.110;2022-12-18T09:32:28;45.00;;;19.92;;
76463;SDS011;65301;46.666;20.110;2022-12-18T09:35:30;51.05;;;22.05;;
76463;SDS011;65301;46.666;20.110;2022-12-18T09:38:32;50.80;;;20.20;;
76463;SDS011;65301;46.666;20.110;2022-12-18T09:41:44;44.27;;;20.10;;
76463;SDS011;65301;46.666;20.110;2022-12-18T09:44:54;51.10;;;20.80;;
76463;SDS011;65301;46.666;20.110;2022-12-18T09:47:56;43.97;;;20.48;;
76463;SDS011;65301;46.666;20.110;2022-12-18T09:51:00;46.50;;;20.38;;
76463;SDS011;65301;46.666;20.110;2022-12-18T09:54:10;46.75;;;20.83;;
76463;SDS011;65301;46.666;20.110;2022-12-18T09:57:17;46.57;;;21.00;;
76463;SDS011;65301;46.666;20.110;2022-12-18T10:00:22;48.30;;;21.05;;
76463;SDS011;65301;46.666;20.110;2022-12-18T10:03:25;49.65;;;21.95;;
76463;SDS011;65301;46.666;20.110;2022-12-18T10:10:06;44.75;;;19.80;;
76463;SDS011;65301;46.666;20.110;2022-12-18T10:13:22;46.17;;;20.70;;
76463;SDS011;65301;46.666;20.110;2022-12-18T10:20:20;49.47;;;22.02;;
76463;SDS011;65301;46.666;20.110;2022-12-18T10:23:26;46.72;;;20.00;;
76463;SDS011;65301;46.666;20.110;2022-12-18T10:26:34;45.90;;;21.85;;
76463;SDS011;65301;46.666;20.110;2022-12-18T10:29:36;44.10;;;21.83;;
76463;SDS011;65301;46.666;20.110;2022-12-18T10:32:39;48.70;;;22.02;;
76463;SDS011;65301;46.666;20.110;2022-12-18T10:35:41;43.97;;;20.25;;
76463;SDS011;65301;46.666;20.110;2022-12-18T10:38:43;48.42;;;22.02;;
76463;SDS011;65301;46.666;20.110;2022-12-18T10:41:45;43.85;;;20.63;;
76463;SDS011;65301;46.666;20.110;2022-12-18T10:44:47;40.70;;;20.73;;
76463;SDS011;65301;46.666;20.110;2022-12-18T10:48:03;45.65;;;20.98;;
76463;SDS011;65301;46.666;20.110;2022-12-18T10:51:05;50.78;;;28.08;;
76463;SDS011;65301;46.666;20.110;2022-12-18T10:54:17;44.45;;;21.67;;
76463;SDS011;65301;46.666;20.110;2022-12-18T11:00:35;37.77;;;18.97;;
76463;SDS011;65301;46.666;20.110;2022-12-18T11:03:38;43.15;;;20.60;;
76463;SDS011;65301;46.666;20.110;2022-12-18T11:10:15;34.90;;;17.88;;
76463;SDS011;65301;46.666;20.110;2022-12-18T11:13:20;34.42;;;17.25;;
76463;SDS011;65301;46.666;20.110;2022-12-18T11:16:23;36.83;;;17.80;;
76463;SDS011;65301;46.666;20.110;2022-12-18T11:19:32;32.05;;;16.42;;
76463;SDS011;65301;46.666;20.110;2022-12-18T11:22:36;40.85;;;22.02;;
76463;SDS011;65301;46.666;20.110;2022-12-18T11:25:39;38.40;;;20.00;;
76463;SDS011;65301;46.666;20.110;2022-12-18T11:29:07;42.70;;;21.80;;
76463;SDS011;65301;46.666;20.110;2022-12-18T11:32:22;41.83;;;21.07;;
76463;SDS011;65301;46.666;20.110;2022-12-18T11:38:47;36.97;;;18.88;;
76463;SDS011;65301;46.666;20.110;2022-12-18T11:41:52;38.28;;;20.20;;
76463;SDS011;65301;46.666;20.110;2022-12-18T11:48:22;34.17;;;18.53;;
76463;SDS011;65301;46.666;20.110;2022-12-18T11:51:31;36.70;;;17.90;;
76463;SDS011;65301;46.666;20.110;2022-12-18T11:54:38;32.63;;;17.02;;
76463;SDS011;65301;46.666;20.110;2022-12-18T12:04:59;33.53;;;18.37;;
76463;SDS011;65301;46.666;20.110;2022-12-18T12:11:27;33.67;;;17.90;;
76463;SDS011;65301;46.666;20.110;2022-12-18T12:18:22;32.90;;;16.38;;
76463;SDS011;65301;46.666;20.110;2022-12-18T12:21:39;29.57;;;15.20;;
76463;SDS011;65301;46.666;20.110;2022-12-18T12:38:46;31.83;;;15.80;;
76463;SDS011;65301;46.666;20.110;2022-12-18T12:41:56;38.97;;;20.15;;
76463;SDS011;65301;46.666;20.110;2022-12-18T12:45:22;32.85;;;17.95;;
76463;SDS011;65301;46.666;20.110;2022-12-18T12:51:55;34.40;;;18.60;;
76463;SDS011;65301;46.666;20.110;2022-12-18T12:55:02;27.80;;;15.47;;
76463;SDS011;65301;46.666;20.110;2022-12-18T12:58:16;30.05;;;16.70;;
76463;SDS011;65301;46.666;20.110;2022-12-18T13:01:49;35.15;;;17.88;;
76463;SDS011;65301;46.666;20.110;2022-12-18T13:05:04;35.28;;;17.67;;
76463;SDS011;65301;46.666;20.110;2022-12-18T13:11:37;31.57;;;17.50;;
76463;SDS011;65301;46.666;20.110;2022-12-18T13:15:20;28.25;;;15.35;;
76463;SDS011;65301;46.666;20.110;2022-12-18T13:18:24;31.98;;;15.75;;
76463;SDS011;65301;46.666;20.110;2022-12-18T13:24:32;28.55;;;14.02;;
76463;SDS011;65301;46.666;20.110;2022-12-18T13:33:45;30.83;;;15.40;;
76463;SDS011;65301;46.666;20.110;2022-12-18T13:37:33;33.08;;;16.70;;
76463;SDS011;65301;46.666;20.110;2022-12-18T13:44:10;35.90;;;16.93;;
76463;SDS011;65301;46.666;20.110;2022-12-18T13:47:33;32.33;;;15.45;;
76463;SDS011;65301;46.666;20.110;2022-12-18T13:50:39;35.28;;;17.90;;
76463;SDS011;65301;46.666;20.110;2022-12-18T13:53:45;29.75;;;14.77;;
76463;SDS011;65301;46.666;20.110;2022-12-18T13:56:51;29.42;;;14.77;;
76463;SDS011;65301;46.666;20.110;2022-12-18T13:59:53;28.90;;;12.93;;
76463;SDS011;65301;46.666;20.110;2022-12-18T14:02:55;31.88;;;15.10;;
76463;SDS011;65301;46.666;20.110;2022-12-18T14:05:59;32.17;;;16.75;;
76463;SDS011;65301;46.666;20.110;2022-12-18T14:09:20;30.55;;;15.38;;
76463;SDS011;65301;46.666;20.110;2022-12-18T14:12:28;37.47;;;16.80;;
76463;SDS011;65301;46.666;20.110;2022-12-18T14:15:52;35.87;;;17.37;;
76463;SDS011;65301;46.666;20.110;2022-12-18T14:18:55;46.33;;;22.48;;
76463;SDS011;65301;46.666;20.110;2022-12-18T14:22:17;47.55;;;22.45;;
76463;SDS011;65301;46.666;20.110;2022-12-18T14:25:29;47.47;;;24.35;;
76463;SDS011;65301;46.666;20.110;2022-12-18T14:28:32;41.92;;;18.73;;
76463;SDS011;65301;46.666;20.110;2022-12-18T14:31:34;42.33;;;20.07;;
76463;SDS011;65301;46.666;20.110;2022-12-18T14:34:39;41.95;;;19.75;;
76463;SDS011;65301;46.666;20.110;2022-12-18T14:37:41;44.53;;;21.65;;
76463;SDS011;65301;46.666;20.110;2022-12-18T14:40:43;39.30;;;17.92;;
76463;SDS011;65301;46.666;20.110;2022-12-18T14:43:46;49.13;;;21.38;;
76463;SDS011;65301;46.666;20.110;2022-12-18T14:46:49;83.23;;;40.30;;
76463;SDS011;65301;46.666;20.110;2022-12-18T14:49:52;101.13;;;50.83;;
76463;SDS011;65301;46.666;20.110;2022-12-18T14:52:53;67.57;;;32.78;;
76463;SDS011;65301;46.666;20.110;2022-12-18T14:55:55;76.90;;;33.47;;
76463;SDS011;65301;46.666;20.110;2022-12-18T14:59:12;71.05;;;31.73;;
76463;SDS011;65301;46.666;20.110;2022-12-18T15:02:25;70.23;;;31.57;;
76463;SDS011;65301;46.666;20.110;2022-12-18T15:05:29;69.97;;;30.10;;
76463;SDS011;65301;46.666;20.110;2022-12-18T15:08:36;77.22;;;34.45;;
76463;SDS011;65301;46.666;20.110;2022-12-18T15:14:43;92.60;;;41.20;;
76463;SDS011;65301;46.666;20.110;2022-12-18T15:17:45;98.50;;;44.20;;
76463;SDS011;65301;46.666;20.110;2022-12-18T15:20:51;93.13;;;40.85;;
76463;SDS011;65301;46.666;20.110;2022-12-18T15:23:54;85.43;;;39.63;;
76463;SDS011;65301;46.666;20.110;2022-12-18T15:26:57;81.13;;;36.28;;
76463;SDS011;65301;46.666;20.110;2022-12-18T15:33:20;64.73;;;30.13;;
76463;SDS011;65301;46.666;20.110;2022-12-18T15:36:26;63.28;;;27.88;;
76463;SDS011;65301;46.666;20.110;2022-12-18T15:39:31;66.15;;;28.17;;
76463;SDS011;65301;46.666;20.110;2022-12-18T15:42:33;56.13;;;23.88;;
76463;SDS011;65301;46.666;20.110;2022-12-18T15:45:54;52.65;;;24.55;;
76463;SDS011;65301;46.666;20.110;2022-12-18T15:48:56;48.67;;;21.60;;
76463;SDS011;65301;46.666;20.110;2022-12-18T15:52:03;55.05;;;23.20;;
76463;SDS011;65301;46.666;20.110;2022-12-18T15:55:15;48.45;;;22.85;;
76463;SDS011;65301;46.666;20.110;2022-12-18T15:58:37;58.67;;;25.67;;
76463;SDS011;65301;46.666;20.110;2022-12-18T16:01:39;50.65;;;22.77;;
76463;SDS011;65301;46.666;20.110;2022-12-18T16:04:43;58.60;;;24.47;;
76463;SDS011;65301;46.666;20.110;2022-12-18T16:07:47;74.28;;;31.45;;
76463;SDS011;65301;46.666;20.110;2022-12-18T16:10:49;103.78;;;45.42;;
76463;SDS011;65301;46.666;20.110;2022-12-18T16:13:51;71.57;;;31.45;;
76463;SDS011;65301;46.666;20.110;2022-12-18T16:16:55;59.55;;;26.42;;
76463;SDS011;65301;46.666;20.110;2022-12-18T16:19:59;65.83;;;27.40;;
76463;SDS011;65301;46.666;20.110;2022-12-18T16:23:01;98.28;;;36.42;;
76463;SDS011;65301;46.666;20.110;2022-12-18T16:26:03;204.52;;;69.72;;
76463;SDS011;65301;46.666;20.110;2022-12-18T16:29:06;239.68;;;95.38;;
76463;SDS011;65301;46.666;20.110;2022-12-18T16:32:11;110.10;;;41.42;;
76463;SDS011;65301;46.666;20.110;2022-12-18T16:35:17;94.97;;;37.83;;
76463;SDS011;65301;46.666;20.110;2022-12-18T16:38:19;76.15;;;31.38;;
76463;SDS011;65301;46.666;20.110;2022-12-18T16:41:21;183.10;;;75.68;;
76463;SDS011;65301;46.666;20.110;2022-12-18T16:44:35;166.07;;;74.13;;
76463;SDS011;65301;46.666;20.110;2022-12-18T16:47:38;96.45;;;37.70;;
76463;SDS011;65301;46.666;20.110;2022-12-18T16:50:40;53.10;;;20.93;;
76463;SDS011;65301;46.666;20.110;2022-12-18T16:53:42;51.97;;;21.60;;
76463;SDS011;65301;46.666;20.110;2022-12-18T16:56:45;47.40;;;20.35;;
76463;SDS011;65301;46.666;20.110;2022-12-18T16:59:50;66.70;;;24.48;;
76463;SDS011;65301;46.666;20.110;2022-12-18T17:02:52;69.40;;;26.88;;
76463;SDS011;65301;46.666;20.110;2022-12-18T17:05:55;110.37;;;40.30;;
76463;SDS011;65301;46.666;20.110;2022-12-18T17:09:05;154.43;;;54.88;;
76463;SDS011;65301;46.666;20.110;2022-12-18T17:12:09;144.13;;;55.15;;
76463;SDS011;65301;46.666;20.110;2022-12-18T17:15:11;108.50;;;41.45;;
76463;SDS011;65301;46.666;20.110;2022-12-18T17:18:13;147.95;;;53.63;;
76463;SDS011;65301;46.666;20.110;2022-12-18T17:21:15;202.83;;;75.57;;
76463;SDS011;65301;46.666;20.110;2022-12-18T17:24:19;245.40;;;95.68;;
76463;SDS011;65301;46.666;20.110;2022-12-18T17:27:21;247.15;;;89.20;;
76463;SDS011;65301;46.666;20.110;2022-12-18T17:30:23;229.98;;;87.57;;
76463;SDS011;65301;46.666;20.110;2022-12-18T17:33:24;232.40;;;86.32;;
76463;SDS011;65301;46.666;20.110;2022-12-18T17:36:27;179.60;;;58.33;;
76463;SDS011;65301;46.666;20.110;2022-12-18T17:39:30;191.43;;;58.70;;
76463;SDS011;65301;46.666;20.110;2022-12-18T17:42:32;158.30;;;53.13;;
76463;SDS011;65301;46.666;20.110;2022-12-18T17:45:37;121.45;;;40.20;;
76463;SDS011;65301;46.666;20.110;2022-12-18T17:48:40;86.10;;;29.92;;
76463;SDS011;65301;46.666;20.110;2022-12-18T17:51:42;99.57;;;35.90;;
76463;SDS011;65301;46.666;20.110;2022-12-18T17:54:44;108.47;;;38.05;;
76463;SDS011;65301;46.666;20.110;2022-12-18T17:57:49;119.43;;;43.25;;
76463;SDS011;65301;46.666;20.110;2022-12-18T18:00:51;118.47;;;40.67;;
76463;SDS011;65301;46.666;20.110;2022-12-18T18:03:53;74.07;;;27.52;;
76463;SDS011;65301;46.666;20.110;2022-12-18T18:06:58;63.40;;;25.20;;
76463;SDS011;65301;46.666;20.110;2022-12-18T18:10:00;59.03;;;22.67;;
76463;SDS011;65301;46.666;20.110;2022-12-18T18:13:03;77.13;;;29.88;;
76463;SDS011;65301;46.666;20.110;2022-12-18T18:16:23;51.40;;;22.77;;
76463;SDS011;65301;46.666;20.110;2022-12-18T18:19:25;62.38;;;24.33;;
76463;SDS011;65301;46.666;20.110;2022-12-18T18:22:27;83.37;;;34.00;;
76463;SDS011;65301;46.666;20.110;2022-12-18T18:25:29;91.50;;;36.53;;
76463;SDS011;65301;46.666;20.110;2022-12-18T18:28:31;93.22;;;36.75;;
76463;SDS011;65301;46.666;20.110;2022-12-18T18:31:33;84.10;;;34.58;;
76463;SDS011;65301;46.666;20.110;2022-12-18T18:34:42;102.10;;;42.05;;
76463;SDS011;65301;46.666;20.110;2022-12-18T18:37:46;104.17;;;40.40;;
76463;SDS011;65301;46.666;20.110;2022-12-18T18:41:01;134.95;;;51.72;;
76463;SDS011;65301;46.666;20.110;2022-12-18T18:44:04;142.25;;;53.38;;
76463;SDS011;65301;46.666;20.110;2022-12-18T18:47:07;107.93;;;41.72;;
76463;SDS011;65301;46.666;20.110;2022-12-18T18:50:10;101.60;;;40.65;;
76463;SDS011;65301;46.666;20.110;2022-12-18T18:53:13;95.57;;;42.63;;
76463;SDS011;65301;46.666;20.110;2022-12-18T18:56:17;122.75;;;49.10;;
76463;SDS011;65301;46.666;20.110;2022-12-18T18:59:44;99.43;;;43.08;;
76463;SDS011;65301;46.666;20.110;2022-12-18T19:02:46;91.00;;;39.72;;
76463;SDS011;65301;46.666;20.110;2022-12-18T19:05:55;91.32;;;39.92;;
76463;SDS011;65301;46.666;20.110;2022-12-18T19:09:01;95.77;;;38.87;;
76463;SDS011;65301;46.666;20.110;2022-12-18T19:12:05;93.47;;;39.65;;
76463;SDS011;65301;46.666;20.110;2022-12-18T19:15:26;91.30;;;40.08;;
76463;SDS011;65301;46.666;20.110;2022-12-18T19:18:28;109.70;;;43.45;;
76463;SDS011;65301;46.666;20.110;2022-12-18T19:21:30;98.95;;;43.85;;
76463;SDS011;65301;46.666;20.110;2022-12-18T19:24:35;104.47;;;44.57;;
76463;SDS011;65301;46.666;20.110;2022-12-18T19:27:37;93.20;;;42.03;;